Time;durP1;ratioP1;P1;durP2;ratioP2;P2;SDS_P1;SDS_P2;PMS_P1;PMS_P2;Temp;Humidity;BMP_temperature;BMP_pressure;BME280_temperature;BME280_humidity;BME280_pressure;Samples;Min_cycle;Max_cycle;Signal;HPM_P1;HPM_P2
2021/12/28 00:01:55;;;;;;;40.42;25.88;;;;;;;-0.72;100.00;100094.50;5012331;28;20745;-87
2021/12/28 00:04:20;;;;;;;38.63;26.50;;;;;;;-0.69;100.00;100098.00;5011675;28;20175;-88
2021/12/28 00:06:46;;;;;;;38.10;25.25;;;;;;;-0.65;100.00;100098.88;5012549;28;20223;-87
2021/12/28 00:09:11;;;;;;;38.90;25.25;;;;;;;-0.64;100.00;100087.44;4998592;28;20165;-87
2021/12/28 00:11:37;;;;;;;42.50;26.40;;;;;;;-0.65;100.00;100099.72;4998846;28;20188;-86
2021/12/28 00:14:04;;;;;;;43.00;25.10;;;;;;;-0.62;100.00;100089.19;5001404;28;20184;-86
2021/12/28 00:16:34;;;;;;;43.58;26.95;;;;;;;-0.64;100.00;100082.19;5013456;28;20192;-87
2021/12/28 00:19:02;;;;;;;40.40;26.40;;;;;;;-0.65;100.00;100088.34;5015328;28;20180;-87
2021/12/28 00:21:28;;;;;;;45.70;27.17;;;;;;;-0.66;100.00;100086.56;5014814;28;20246;-87
2021/12/28 00:23:53;;;;;;;40.05;25.75;;;;;;;-0.67;100.00;100072.56;5014137;28;20332;-87
2021/12/28 00:26:20;;;;;;;38.67;25.15;;;;;;;-0.67;100.00;100075.19;4997258;28;20172;-87
2021/12/28 00:28:47;;;;;;;39.15;27.02;;;;;;;-0.65;100.00;100069.94;4997406;28;20179;-88
2021/12/28 00:31:15;;;;;;;40.92;25.92;;;;;;;-0.61;100.00;100074.28;5000303;28;20204;-88
2021/12/28 00:33:41;;;;;;;43.30;26.77;;;;;;;-0.59;100.00;100075.16;5013884;28;20701;-87
2021/12/28 00:36:06;;;;;;;37.78;25.38;;;;;;;-0.61;100.00;100071.66;5014794;28;20173;-86
2021/12/28 00:38:33;;;;;;;37.90;25.63;;;;;;;-0.62;100.00;100059.38;4998804;28;20180;-87
2021/12/28 00:41:00;;;;;;;39.40;26.95;;;;;;;-0.63;100.00;100073.44;4998830;28;20574;-87
2021/12/28 00:43:28;;;;;;;43.40;27.98;;;;;;;-0.60;100.00;100056.75;4996001;28;20191;-87
2021/12/28 00:45:54;;;;;;;41.55;26.33;;;;;;;-0.60;100.00;100059.38;5011953;28;20302;-87
2021/12/28 00:48:19;;;;;;;38.80;25.85;;;;;;;-0.63;100.00;100061.13;5014173;28;20230;-88
2021/12/28 00:50:46;;;;;;;41.28;27.05;;;;;;;-0.62;100.00;100056.75;5012692;28;20250;-87
2021/12/28 00:53:12;;;;;;;41.60;26.88;;;;;;;-0.59;100.00;100056.75;4996117;28;20173;-87
2021/12/28 00:55:38;;;;;;;40.58;25.85;;;;;;;-0.61;100.00;100045.34;4998472;28;20176;-89
2021/12/28 00:58:04;;;;;;;41.08;26.77;;;;;;;-0.59;100.00;100050.59;4999842;28;20183;-88
2021/12/28 01:00:34;;;;;;;39.15;25.83;;;;;;;-0.62;100.00;100051.47;5016405;28;20200;-87
2021/12/28 01:03:04;;;;;;;38.85;26.35;;;;;;;-0.61;100.00;100053.25;4998349;28;20226;-87
2021/12/28 01:05:31;;;;;;;43.15;27.35;;;;;;;-0.59;100.00;100054.13;4996693;28;20630;-88
2021/12/28 01:07:57;;;;;;;43.75;26.58;;;;;;;-0.60;100.00;100048.84;4996737;28;20172;-88
2021/12/28 01:10:27;;;;;;;42.42;26.65;;;;;;;-0.58;100.00;100054.97;4995645;28;20200;-87
2021/12/28 01:12:55;;;;;;;45.15;26.52;;;;;;;-0.62;100.00;100052.34;5013017;28;20181;-87
2021/12/28 01:15:22;;;;;;;41.72;26.20;;;;;;;-0.57;100.00;100047.06;4997071;28;20185;-88
2021/12/28 01:17:47;;;;;;;36.67;25.63;;;;;;;-0.54;100.00;100048.81;4997003;28;20192;-86
2021/12/28 01:20:14;;;;;;;40.53;26.38;;;;;;;-0.54;100.00;100049.69;4995596;28;20250;-85
2021/12/28 01:22:40;;;;;;;45.75;27.27;;;;;;;-0.54;100.00;100044.44;4997221;28;20188;-87
2021/12/28 01:25:07;;;;;;;41.47;26.63;;;;;;;-0.53;100.00;100034.78;5017267;28;20544;-87
2021/12/28 01:27:33;;;;;;;38.42;25.73;;;;;;;-0.55;100.00;100039.16;5016536;28;20183;-87
2021/12/28 01:29:58;;;;;;;39.85;25.92;;;;;;;-0.52;100.00;100041.81;4999320;28;20200;-87
2021/12/28 01:32:24;;;;;;;41.58;26.55;;;;;;;-0.51;100.00;100041.78;4996335;28;20535;-87
2021/12/28 01:34:50;;;;;;;37.65;25.33;;;;;;;-0.52;100.00;100037.41;4996015;28;20239;-86
2021/12/28 01:37:16;;;;;;;43.63;26.25;;;;;;;-0.51;100.00;100028.63;5012863;28;20192;-86
2021/12/28 01:39:41;;;;;;;38.78;25.00;;;;;;;-0.51;100.00;100036.50;4998330;28;20176;-87
2021/12/28 01:42:07;;;;;;;41.50;25.75;;;;;;;-0.48;100.00;100020.72;5013715;28;20207;-87
2021/12/28 01:44:36;;;;;;;41.80;26.48;;;;;;;-0.48;100.00;100025.09;5012090;28;20173;-87
2021/12/28 01:47:03;;;;;;;42.72;26.35;;;;;;;-0.48;100.00;100010.19;5020139;28;20281;-87
2021/12/28 01:49:29;;;;;;;41.15;26.58;;;;;;;-0.49;100.00;100016.31;5014498;28;20279;-88
2021/12/28 01:51:55;;;;;;;44.50;26.42;;;;;;;-0.47;100.00;100009.28;4994861;28;20624;-87
2021/12/28 01:54:21;;;;;;;39.53;26.02;;;;;;;-0.44;100.00;100017.19;5011735;28;20169;-89
2021/12/28 01:56:48;;;;;;;40.53;25.88;;;;;;;-0.42;100.00;100019.78;5006151;28;20173;-87
2021/12/28 01:59:16;;;;;;;40.10;26.30;;;;;;;-0.42;100.00;100019.78;4995572;28;20172;-87
2021/12/28 02:01:45;;;;;;;42.15;24.98;;;;;;;-0.42;100.00;100011.91;5012798;28;20209;-88
2021/12/28 02:04:19;;;;;;;38.30;24.80;;;;;;;-0.42;100.00;99998.75;5017121;28;20181;-86
2021/12/28 02:06:45;;;;;;;39.08;25.27;;;;;;;-0.40;100.00;99999.59;5014086;28;20279;-88
2021/12/28 02:09:11;;;;;;;37.78;25.08;;;;;;;-0.44;100.00;99998.78;5000029;28;20181;-87
2021/12/28 02:11:37;;;;;;;39.10;25.20;;;;;;;-0.39;100.00;99995.22;4998255;28;20189;-87
2021/12/28 02:14:06;;;;;;;42.22;25.90;;;;;;;-0.40;100.00;99993.47;5015001;28;20272;-87
2021/12/28 02:16:36;;;;;;;43.80;27.25;;;;;;;-0.43;100.00;99987.34;5015758;28;20173;-88
2021/12/28 02:19:03;;;;;;;40.22;25.45;;;;;;;-0.42;100.00;99986.47;5014965;28;20177;-86
2021/12/28 02:21:31;;;;;;;41.25;26.05;;;;;;;-0.40;100.00;99978.56;4997395;28;20678;-87
2021/12/28 02:24:02;;;;;;;39.33;25.33;;;;;;;-0.39;100.00;99972.41;5011590;28;20207;-87
2021/12/28 02:26:28;;;;;;;39.08;25.95;;;;;;;-0.39;100.00;99966.25;4994706;28;20303;-87
2021/12/28 02:28:54;;;;;;;44.53;27.05;;;;;;;-0.37;100.00;99968.03;5013425;28;20262;-86
2021/12/28 02:31:20;;;;;;;40.58;26.17;;;;;;;-0.35;100.00;99966.25;5014551;28;20212;-87
2021/12/28 02:33:48;;;;;;;40.35;25.75;;;;;;;-0.38;100.00;99968.88;5014026;28;20207;-86
2021/12/28 02:36:15;;;;;;;43.00;26.23;;;;;;;-0.39;100.00;99971.53;5015780;28;20181;-87
2021/12/28 02:38:41;;;;;;;38.95;25.00;;;;;;;-0.39;100.00;99968.88;5018682;28;20176;-87
2021/12/28 02:41:09;;;;;;;38.63;25.10;;;;;;;-0.40;100.00;99956.63;4998687;28;20283;-87
2021/12/28 02:43:35;;;;;;;40.67;25.30;;;;;;;-0.43;100.00;99954.91;4998871;28;20685;-87
2021/12/28 02:46:03;;;;;;;42.85;27.05;;;;;;;-0.42;100.00;99943.47;4997458;28;20185;-87
2021/12/28 02:48:29;;;;;;;39.85;25.25;;;;;;;-0.43;100.00;99947.88;5009240;28;20236;-87
2021/12/28 02:51:02;;;;;;;41.67;25.85;;;;;;;-0.46;100.00;99953.16;4994844;28;20205;-88
2021/12/28 02:53:27;;;;;;;41.50;26.77;;;;;;;-0.45;100.00;99957.53;5015554;28;20190;-88
2021/12/28 02:55:57;;;;;;;40.90;25.75;;;;;;;-0.45;100.00;99949.63;5015337;28;20172;-87
2021/12/28 02:58:34;;;;;;;40.70;26.13;;;;;;;-0.43;100.00;99939.97;5017215;28;20173;-88
2021/12/28 03:01:02;;;;;;;41.08;25.90;;;;;;;-0.43;100.00;99939.97;5015332;28;20208;-87
2021/12/28 03:03:30;;;;;;;40.95;25.48;;;;;;;-0.46;100.00;99955.81;5015372;28;20614;-87
2021/12/28 03:05:57;;;;;;;43.05;26.60;;;;;;;-0.38;100.00;99949.59;4998267;28;20237;-87
2021/12/28 03:08:25;;;;;;;41.92;26.73;;;;;;;-0.42;100.00;99941.75;4998745;28;20173;-87
2021/12/28 03:10:52;;;;;;;43.30;26.58;;;;;;;-0.39;100.00;99937.31;5013671;28;20255;-87
2021/12/28 03:13:29;;;;;;;42.00;26.15;;;;;;;-0.44;100.00;99933.00;4999527;28;20192;-87
2021/12/28 03:15:55;;;;;;;45.53;26.38;;;;;;;-0.44;100.00;99939.97;4998099;28;20207;-88
2021/12/28 03:18:21;;;;;;;43.10;26.48;;;;;;;-0.45;100.00;99939.13;4982538;28;20215;-85
2021/12/28 03:20:47;;;;;;;42.08;26.27;;;;;;;-0.44;100.00;99934.72;5013978;28;20197;-87
2021/12/28 03:23:15;;;;;;;44.58;26.80;;;;;;;-0.50;100.00;99927.75;4997522;28;20176;-87
2021/12/28 03:25:40;;;;;;;46.80;27.83;;;;;;;-0.45;100.00;99928.59;5014498;28;20183;-87
2021/12/28 03:28:06;;;;;;;38.38;26.55;;;;;;;-0.46;100.00;99931.22;5015556;28;20184;-86
2021/12/28 03:30:32;;;;;;;46.42;27.08;;;;;;;-0.50;100.00;99932.16;5015255;28;20268;-87
2021/12/28 03:32:58;;;;;;;40.83;26.45;;;;;;;-0.52;100.00;99918.16;5013304;28;20180;-87
2021/12/28 03:35:23;;;;;;;45.78;28.08;;;;;;;-0.47;100.00;99929.50;5011795;28;20276;-87
2021/12/28 03:37:49;;;;;;;44.22;27.58;;;;;;;-0.45;100.00;99904.03;5011476;28;20254;-87
2021/12/28 03:40:16;;;;;;;40.78;27.25;;;;;;;-0.49;100.00;99910.22;4994971;28;20220;-87
2021/12/28 03:42:41;;;;;;;39.78;25.15;;;;;;;-0.52;100.00;99911.13;4995916;28;20626;-87
2021/12/28 03:45:09;;;;;;;43.50;27.55;;;;;;;-0.56;100.00;99908.53;5013913;28;20215;-87
2021/12/28 03:47:34;;;;;;;42.25;26.25;;;;;;;-0.54;100.00;99905.00;5012193;28;20180;-88
2021/12/28 03:50:01;;;;;;;43.58;27.70;;;;;;;-0.59;100.00;99903.25;4996111;28;20211;-87
2021/12/28 03:52:26;;;;;;;43.40;27.77;;;;;;;-0.62;100.00;99909.44;4996443;28;20724;-87
2021/12/28 03:54:52;;;;;;;46.22;28.05;;;;;;;-0.68;100.00;99906.84;4996758;28;20275;-87
2021/12/28 03:57:17;;;;;;;48.58;28.15;;;;;;;-0.64;100.00;99900.69;4995553;28;20176;-88
2021/12/28 03:59:43;;;;;;;42.92;28.05;;;;;;;-0.68;100.00;99894.59;5014165;28;20176;-86
2021/12/28 04:02:09;;;;;;;43.47;27.30;;;;;;;-0.70;100.00;99898.09;4997351;28;20211;-86
2021/12/28 04:04:34;;;;;;;47.65;27.92;;;;;;;-0.70;100.00;99885.84;4998126;28;20216;-87
2021/12/28 04:07:00;;;;;;;47.03;28.70;;;;;;;-0.75;100.00;99897.25;4976227;28;20181;-88
2021/12/28 04:12:10;;;;;;;45.83;27.42;;;;;;;-0.80;100.00;99884.16;4993011;28;20638;-86
2021/12/28 04:14:35;;;;;;;47.13;28.58;;;;;;;-0.77;100.00;99886.75;4991218;28;20173;-87
2021/12/28 04:17:01;;;;;;;45.95;28.25;;;;;;;-0.77;100.00;99878.84;4974276;28;20186;-87
2021/12/28 04:19:27;;;;;;;46.92;27.80;;;;;;;-0.73;100.00;99871.81;4974981;28;20267;-87
2021/12/28 04:21:52;;;;;;;51.53;28.95;;;;;;;-0.69;100.00;99878.81;4991091;28;20205;-86
2021/12/28 04:24:18;;;;;;;46.20;28.15;;;;;;;-0.69;100.00;99865.66;4991275;28;20181;-87
2021/12/28 04:26:43;;;;;;;48.40;29.80;;;;;;;-0.72;100.00;99863.94;4992990;28;20260;-85
2021/12/28 04:29:09;;;;;;;47.90;29.27;;;;;;;-0.73;100.00;99874.44;4994592;28;20650;-86
2021/12/28 04:31:34;;;;;;;45.72;27.92;;;;;;;-0.71;100.00;99870.91;4991724;28;20189;-86
2021/12/28 04:34:00;;;;;;;51.75;29.77;;;;;;;-0.68;100.00;99870.91;4994514;28;20172;-85
2021/12/28 04:36:25;;;;;;;45.55;28.10;;;;;;;-0.65;100.00;99884.03;4996100;28;20165;-85
2021/12/28 04:38:51;;;;;;;44.13;28.23;;;;;;;-0.72;100.00;99878.81;4994311;28;20240;-85
2021/12/28 04:41:16;;;;;;;45.10;27.83;;;;;;;-0.66;100.00;99868.25;4994197;28;20680;-86
2021/12/28 04:43:43;;;;;;;44.25;27.45;;;;;;;-0.65;100.00;99880.53;4995434;28;20703;-87
2021/12/28 04:46:08;;;;;;;46.60;29.25;;;;;;;-0.66;100.00;99873.50;4991869;28;20256;-86
2021/12/28 04:48:34;;;;;;;51.67;29.65;;;;;;;-0.68;100.00;99856.88;5001038;28;20207;-88
2021/12/28 04:51:00;;;;;;;47.65;30.30;;;;;;;-0.65;100.00;99847.19;4993536;28;20564;-88
2021/12/28 04:53:26;;;;;;;48.13;28.50;;;;;;;-0.60;100.00;99843.66;4993313;28;20526;-88
2021/12/28 04:55:52;;;;;;;49.35;27.88;;;;;;;-0.60;100.00;99847.16;4990741;28;20170;-88
2021/12/28 04:58:17;;;;;;;46.55;28.73;;;;;;;-0.58;100.00;99849.78;4981559;28;20322;-88
2021/12/28 05:00:46;;;;;;;45.10;29.38;;;;;;;-0.67;100.00;99848.97;5010566;28;20256;-88
2021/12/28 05:03:11;;;;;;;43.42;28.42;;;;;;;-0.65;100.00;99856.84;4986050;28;20559;-89
2021/12/28 05:05:43;;;;;;;51.97;30.45;;;;;;;-0.68;100.00;99851.59;5007122;28;20173;-88
2021/12/28 05:08:08;;;;;;;46.10;30.25;;;;;;;-0.65;100.00;99849.84;4990939;28;20268;-89
2021/12/28 05:10:34;;;;;;;50.22;30.88;;;;;;;-0.60;100.00;99849.78;4975846;28;20649;-90
2021/12/28 05:13:00;;;;;;;50.00;29.17;;;;;;;-0.62;100.00;99847.16;4974929;28;20275;-89
2021/12/28 05:15:25;;;;;;;47.17;30.20;;;;;;;-0.62;100.00;99839.28;4974425;28;20185;-87
2021/12/28 05:17:51;;;;;;;51.72;30.55;;;;;;;-0.58;100.00;99844.53;4991609;28;20189;-89
2021/12/28 05:20:16;;;;;;;48.67;29.75;;;;;;;-0.63;100.00;99840.16;4974355;28;20193;-87
2021/12/28 05:22:41;;;;;;;48.03;29.33;;;;;;;-0.59;100.00;99846.28;4990765;28;20185;-88
2021/12/28 05:25:08;;;;;;;47.80;29.23;;;;;;;-0.61;100.00;99850.69;4977553;28;20177;-86
2021/12/28 05:27:33;;;;;;;50.80;30.10;;;;;;;-0.62;100.00;99852.44;5011899;28;20181;-86
2021/12/28 05:29:59;;;;;;;50.42;29.92;;;;;;;-0.63;100.00;99850.69;4994558;28;20225;-86
2021/12/28 05:32:24;;;;;;;51.10;31.02;;;;;;;-0.59;100.00;99848.03;4994857;28;20549;-86
2021/12/28 05:34:49;;;;;;;48.40;28.95;;;;;;;-0.51;100.00;99857.59;4995567;28;20195;-86
2021/12/28 05:37:16;;;;;;;52.03;30.67;;;;;;;-0.57;100.00;99846.25;4996549;28;20172;-86
2021/12/28 05:39:41;;;;;;;42.92;28.33;;;;;;;-0.59;100.00;99838.41;5010999;28;20177;-86
2021/12/28 05:42:07;;;;;;;52.67;30.33;;;;;;;-0.55;100.00;99826.94;4996147;28;20559;-86
2021/12/28 05:44:32;;;;;;;48.65;29.80;;;;;;;-0.57;100.00;99833.97;4995991;28;20552;-86
2021/12/28 05:46:58;;;;;;;45.88;29.40;;;;;;;-0.52;100.00;99819.03;4996807;28;20187;-86
2021/12/28 05:49:24;;;;;;;45.13;29.63;;;;;;;-0.55;100.00;99815.53;4979056;28;20235;-86
2021/12/28 05:51:49;;;;;;;47.40;30.40;;;;;;;-0.51;100.00;99809.38;5011736;28;20205;-86
2021/12/28 05:54:15;;;;;;;46.33;28.13;;;;;;;-0.48;100.00;99811.97;4996193;28;20249;-86
2021/12/28 05:56:41;;;;;;;46.28;28.50;;;;;;;-0.52;100.00;99813.78;4996311;28;20188;-86
2021/12/28 05:59:07;;;;;;;42.97;28.55;;;;;;;-0.52;100.00;99813.78;4994971;28;20192;-86
2021/12/28 06:01:33;;;;;;;48.22;29.90;;;;;;;-0.53;100.00;99812.00;4979268;28;20201;-86
2021/12/28 06:03:58;;;;;;;45.95;29.10;;;;;;;-0.53;100.00;99808.50;5017010;28;20203;-85
2021/12/28 06:06:24;;;;;;;43.80;28.05;;;;;;;-0.51;100.00;99807.59;4996101;28;20228;-86
2021/12/28 06:08:51;;;;;;;48.30;29.67;;;;;;;-0.51;100.00;99810.25;4979854;28;20721;-84
2021/12/28 06:11:17;;;;;;;46.53;30.15;;;;;;;-0.52;100.00;99813.78;5003319;28;20529;-87
2021/12/28 06:13:42;;;;;;;45.20;28.20;;;;;;;-0.52;100.00;99813.78;4995044;28;20693;-86
2021/12/28 06:16:09;;;;;;;49.65;29.83;;;;;;;-0.56;100.00;99814.69;4994897;28;20185;-86
2021/12/28 06:18:35;;;;;;;43.40;28.25;;;;;;;-0.52;100.00;99816.41;4995505;28;20224;-86
2021/12/28 06:21:00;;;;;;;51.05;29.40;;;;;;;-0.57;100.00;99812.06;4994772;28;20669;-86
2021/12/28 06:23:26;;;;;;;47.67;28.90;;;;;;;-0.51;100.00;99812.00;4995071;28;20185;-87
2021/12/28 06:25:51;;;;;;;51.13;28.70;;;;;;;-0.55;100.00;99805.03;4977841;28;20252;-87
2021/12/28 06:28:17;;;;;;;44.28;28.13;;;;;;;-0.57;100.00;99796.28;4996123;28;20260;-87
2021/12/28 06:30:42;;;;;;;47.65;29.38;;;;;;;-0.58;100.00;99795.41;5009214;28;20216;-87
2021/12/28 06:33:11;;;;;;;45.35;28.15;;;;;;;-0.59;100.00;99796.31;5015911;28;20177;-85
2021/12/28 06:35:36;;;;;;;49.17;30.20;;;;;;;-0.56;100.00;99793.63;4996387;28;20223;-88
2021/12/28 06:38:02;;;;;;;49.38;30.05;;;;;;;-0.55;100.00;99802.41;5014749;28;20175;-86
2021/12/28 06:40:29;;;;;;;50.95;29.95;;;;;;;-0.57;100.00;99783.13;5017918;28;20228;-87
2021/12/28 06:42:55;;;;;;;46.15;29.15;;;;;;;-0.53;100.00;99792.72;5014510;28;20243;-86
2021/12/28 06:45:20;;;;;;;49.85;28.90;;;;;;;-0.55;100.00;99786.59;5015100;28;20257;-86
2021/12/28 06:47:47;;;;;;;47.05;29.95;;;;;;;-0.54;100.00;99785.75;5015553;28;20188;-86
2021/12/28 06:50:13;;;;;;;45.75;28.63;;;;;;;-0.53;100.00;99774.31;5014531;28;20260;-87
2021/12/28 06:52:39;;;;;;;45.60;29.33;;;;;;;-0.55;100.00;99774.31;5015872;28;20197;-86
2021/12/28 06:55:07;;;;;;;48.47;29.05;;;;;;;-0.56;100.00;99783.13;5016101;28;20218;-87
2021/12/28 06:57:33;;;;;;;45.38;29.08;;;;;;;-0.57;100.00;99786.63;5012102;28;20175;-88
2021/12/28 06:59:58;;;;;;;47.67;30.73;;;;;;;-0.56;100.00;99782.25;5015839;28;20181;-88
2021/12/28 07:02:24;;;;;;;47.22;29.17;;;;;;;-0.56;100.00;99783.13;5017182;28;20169;-88
2021/12/28 07:04:50;;;;;;;44.13;29.23;;;;;;;-0.57;100.00;99796.28;4983437;28;20537;-88
2021/12/28 07:07:16;;;;;;;49.08;29.92;;;;;;;-0.54;100.00;99794.50;4994944;28;20188;-87
2021/12/28 07:09:41;;;;;;;45.50;29.02;;;;;;;-0.54;100.00;99788.38;4996220;28;20193;-88
2021/12/28 07:12:09;;;;;;;47.30;29.83;;;;;;;-0.47;100.00;99780.38;4996628;28;20207;-87
2021/12/28 07:14:34;;;;;;;46.45;29.83;;;;;;;-0.50;100.00;99792.72;4996494;28;20180;-88
2021/12/28 07:17:00;;;;;;;44.63;28.98;;;;;;;-0.50;100.00;99784.81;4997133;28;20174;-87
2021/12/28 07:19:26;;;;;;;47.03;29.02;;;;;;;-0.49;100.00;99787.41;4982161;28;20684;-86
2021/12/28 07:21:52;;;;;;;47.28;29.90;;;;;;;-0.50;100.00;99784.81;4994666;28;20671;-86
2021/12/28 07:24:18;;;;;;;53.20;30.60;;;;;;;-0.47;100.00;99798.81;4993674;28;20161;-86
2021/12/28 07:26:44;;;;;;;50.05;30.33;;;;;;;-0.46;100.00;99792.66;4992950;28;20521;-87
2021/12/28 07:29:10;;;;;;;48.28;29.52;;;;;;;-0.47;100.00;99783.00;4993884;28;20228;-87
2021/12/28 07:31:36;;;;;;;49.13;30.25;;;;;;;-0.46;100.00;99779.50;4993545;28;20599;-88
2021/12/28 07:34:02;;;;;;;49.33;29.88;;;;;;;-0.45;100.00;99786.50;4993568;28;20284;-87
2021/12/28 07:36:27;;;;;;;48.58;29.92;;;;;;;-0.45;100.00;99777.75;4997759;28;20279;-87
2021/12/28 07:38:54;;;;;;;50.55;30.55;;;;;;;-0.44;100.00;99790.91;5012911;28;20188;-87
2021/12/28 07:41:20;;;;;;;43.10;28.85;;;;;;;-0.40;100.00;99780.31;5012497;28;20196;-87
2021/12/28 07:43:46;;;;;;;49.58;30.35;;;;;;;-0.42;100.00;99785.59;5013038;28;20176;-88
2021/12/28 07:46:11;;;;;;;48.38;30.15;;;;;;;-0.39;100.00;99776.78;5012719;28;20481;-88
2021/12/28 07:48:37;;;;;;;48.90;30.42;;;;;;;-0.36;100.00;99776.78;5179290;23;20308;-86
2021/12/28 07:51:03;;;;;;;50.08;30.10;;;;;;;-0.37;100.00;99777.66;4989394;28;20224;-88
2021/12/28 07:53:28;;;;;;;50.65;31.25;;;;;;;-0.34;100.00;99777.63;4993082;28;20189;-89
2021/12/28 07:55:54;;;;;;;48.95;30.25;;;;;;;-0.35;100.00;99765.34;4976584;28;20180;-87
2021/12/28 07:58:19;;;;;;;50.05;30.30;;;;;;;-0.32;100.00;99765.34;4993984;28;20169;-85
2021/12/28 08:00:45;;;;;;;49.67;30.48;;;;;;;-0.34;100.00;99767.97;4977219;28;20360;-87
2021/12/28 08:03:10;;;;;;;51.72;30.85;;;;;;;-0.34;100.00;99761.84;4992673;28;20185;-87
2021/12/28 08:05:37;;;;;;;51.80;30.70;;;;;;;-0.35;100.00;99766.25;4992131;28;20208;-86
2021/12/28 08:08:03;;;;;;;55.67;33.85;;;;;;;-0.36;100.00;99764.47;4977547;28;20170;-86
2021/12/28 08:10:29;;;;;;;52.67;32.00;;;;;;;-0.33;100.00;99758.31;4977223;28;20189;-86
2021/12/28 08:12:56;;;;;;;54.33;32.67;;;;;;;-0.34;100.00;99761.84;4992965;28;20186;-88
2021/12/28 08:15:24;;;;;;;50.10;32.25;;;;;;;-0.36;100.00;99753.09;4976557;28;20260;-88
2021/12/28 08:17:50;;;;;;;51.55;31.73;;;;;;;-0.34;100.00;99741.66;5114283;23;20728;-88
2021/12/28 08:20:17;;;;;;;49.67;31.73;;;;;;;-0.31;100.00;99749.50;4998762;28;20305;-86
2021/12/28 08:22:44;;;;;;;52.83;33.22;;;;;;;-0.34;100.00;99746.06;5017874;28;20196;-85
2021/12/28 08:25:12;;;;;;;51.88;33.72;;;;;;;-0.32;100.00;99752.16;5015368;28;20172;-86
2021/12/28 08:27:38;;;;;;;50.22;32.13;;;;;;;-0.29;100.00;99749.50;5198066;23;20225;-86
2021/12/28 08:30:06;;;;;;;54.20;32.53;;;;;;;-0.31;100.00;99752.13;4993836;28;20212;-87
2021/12/28 08:32:31;;;;;;;51.55;33.10;;;;;;;-0.28;100.00;99754.75;5012372;28;20177;-85
2021/12/28 08:35:00;;;;;;;50.22;33.28;;;;;;;-0.24;100.00;99745.03;5010573;28;20181;-87
2021/12/28 08:37:27;;;;;;;53.97;33.08;;;;;;;-0.26;100.00;99736.31;5010948;28;20537;-87
2021/12/28 08:39:52;;;;;;;53.03;33.92;;;;;;;-0.23;100.00;99741.53;5011163;28;20173;-88
2021/12/28 08:42:19;;;;;;;59.00;33.08;;;;;;;-0.22;100.00;99746.78;5010682;28;20215;-87
2021/12/28 08:44:45;;;;;;;50.38;33.47;;;;;;;-0.21;100.00;99729.22;5011093;28;20176;-85
2021/12/28 08:49:38;;;;;;;52.13;34.00;;;;;;;-0.24;100.00;99738.03;5009674;28;20215;-88
2021/12/28 08:52:04;;;;;;;49.42;33.28;;;;;;;-0.26;100.00;99742.44;5009850;28;20200;-87
2021/12/28 08:54:29;;;;;;;55.35;33.95;;;;;;;-0.25;100.00;99735.41;4995481;28;20226;-87
2021/12/28 08:56:55;;;;;;;54.70;33.58;;;;;;;-0.24;100.00;99719.63;4979496;28;20184;-88
2021/12/28 08:59:20;;;;;;;55.60;34.53;;;;;;;-0.28;100.00;99732.84;5013443;28;20189;-87
2021/12/28 09:01:48;;;;;;;54.50;34.33;;;;;;;-0.26;100.00;99725.78;4980975;28;20219;-87
2021/12/28 09:04:13;;;;;;;52.85;33.90;;;;;;;-0.22;100.00;99727.47;4996633;28;20188;-87
2021/12/28 09:06:39;;;;;;;54.67;34.25;;;;;;;-0.21;100.00;99716.06;4994503;28;20180;-87
2021/12/28 09:09:04;;;;;;;52.83;33.33;;;;;;;-0.23;100.00;99726.59;4995577;28;20165;-87
2021/12/28 09:11:30;;;;;;;50.08;34.58;;;;;;;-0.17;100.00;99720.41;4995343;28;20330;-88
2021/12/28 09:13:55;;;;;;;59.35;34.25;;;;;;;-0.14;100.00;99720.34;4978744;28;20165;-87
2021/12/28 09:16:22;;;;;;;55.50;35.63;;;;;;;-0.17;100.00;99725.66;4978360;28;20176;-86
2021/12/28 09:18:48;;;;;;;54.22;34.55;;;;;;;-0.16;100.00;99719.50;4978685;28;20231;-87
2021/12/28 09:21:14;;;;;;;56.10;33.63;;;;;;;-0.04;100.00;99711.47;4995558;28;20208;-88
2021/12/28 09:23:40;;;;;;;58.05;34.88;;;;;;;-0.08;100.00;99714.16;4978967;28;20290;-88
2021/12/28 09:26:06;;;;;;;54.70;35.10;;;;;;;-0.09;100.00;99700.13;4996587;28;20516;-88
2021/12/28 09:28:32;;;;;;;51.95;35.28;;;;;;;-0.14;100.00;99695.78;5012872;28;20211;-88
2021/12/28 09:30:57;;;;;;;54.97;34.75;;;;;;;-0.09;100.00;99704.50;5012012;28;20348;-89
2021/12/28 09:33:24;;;;;;;56.10;35.17;;;;;;;-0.13;100.00;99694.88;5013060;28;20188;-88
2021/12/28 09:35:52;;;;;;;54.60;35.00;;;;;;;-0.10;100.00;99702.78;4993983;28;20176;-88
2021/12/28 09:38:19;;;;;;;53.42;33.95;;;;;;;-0.10;100.00;99694.88;4981992;28;20168;-88
2021/12/28 09:40:47;;;;;;;53.17;35.47;;;;;;;-0.10;100.00;99701.00;4998769;28;20566;-88
2021/12/28 09:43:14;;;;;;;58.55;34.92;;;;;;;-0.04;100.00;99695.66;4982104;28;20692;-87
2021/12/28 09:45:40;;;;;;;60.22;35.50;;;;;;;-0.07;100.00;99686.91;4998139;28;20191;-87
2021/12/28 09:48:08;;;;;;;55.65;34.33;;;;;;;-0.06;100.00;99676.38;4983149;28;20660;-87
2021/12/28 09:50:34;;;;;;;54.47;34.35;;;;;;;-0.03;100.00;99678.94;4981349;28;20188;-87
2021/12/28 09:53:01;;;;;;;55.85;35.40;;;;;;;0.01;100.00;99663.13;4998140;28;20165;-87
2021/12/28 09:55:27;;;;;;;54.72;35.53;;;;;;;0.06;100.00;99682.34;5001841;28;20276;-85
2021/12/28 09:57:53;;;;;;;55.55;35.72;;;;;;;0.08;100.00;99691.97;5013187;23;20233;-87
2021/12/28 10:00:22;;;;;;;55.28;34.25;;;;;;;0.09;100.00;99674.41;4995934;28;20194;-87
2021/12/28 10:02:48;;;;;;;52.00;34.95;;;;;;;0.21;100.00;99671.59;5004883;28;20177;-86
2021/12/28 10:05:18;;;;;;;52.58;35.10;;;;;;;0.15;100.00;99666.41;4978617;28;20392;-88
2021/12/28 10:07:57;;;;;;;54.45;34.10;;;;;;;0.12;100.00;99677.88;4994504;28;20686;-87
2021/12/28 10:10:44;;;;;;;55.15;34.97;;;;;;;0.12;100.00;99675.25;4976907;28;20299;-87
2021/12/28 10:13:21;;;;;;;53.42;34.22;;;;;;;0.10;100.00;99679.66;4958876;28;20194;-88
2021/12/28 10:15:49;;;;;;;56.95;35.67;;;;;;;0.06;100.00;99671.81;4958863;28;20726;-86
2021/12/28 10:18:16;;;;;;;56.15;34.63;;;;;;;0.06;100.00;99669.19;4975988;28;20181;-89
2021/12/28 10:20:55;;;;;;;54.05;35.38;;;;;;;0.06;100.00;99661.28;4959150;28;20249;-88
2021/12/28 10:23:25;;;;;;;59.63;35.13;;;;;;;0.04;100.00;99661.31;4975324;28;20773;-88
2021/12/28 10:26:00;;;;;;;52.35;35.55;;;;;;;0.02;100.00;99657.81;4976555;28;20709;-87
2021/12/28 10:28:33;;;;;;;56.47;36.08;;;;;;;0.04;100.00;99653.41;4958832;28;20177;-86
2021/12/28 10:31:08;;;;;;;56.25;35.58;;;;;;;0.01;100.00;99657.88;4975555;28;20198;-88
2021/12/28 10:33:36;;;;;;;59.13;35.65;;;;;;;0.06;100.00;99643.72;4977343;28;20229;-87
2021/12/28 10:36:13;;;;;;;59.85;37.38;;;;;;;0.03;100.00;99662.22;4977116;28;20182;-86
2021/12/28 10:38:45;;;;;;;61.47;36.42;;;;;;;0.08;100.00;99651.63;4959503;28;20186;-88
2021/12/28 10:41:14;;;;;;;63.60;36.83;;;;;;;0.05;100.00;99644.63;4974827;28;20276;-87
2021/12/28 10:43:45;;;;;;;58.42;36.97;;;;;;;0.01;100.00;99642.94;4974649;28;20189;-87
2021/12/28 10:46:14;;;;;;;59.42;35.83;;;;;;;0.06;100.00;99637.59;4975699;28;20306;-90
2021/12/28 10:48:47;;;;;;;58.50;35.53;;;;;;;0.08;100.00;99628.78;4959199;28;20696;-89
2021/12/28 10:51:21;;;;;;;58.30;36.25;;;;;;;0.09;100.00;99632.28;4959079;28;20193;-88
2021/12/28 10:54:11;;;;;;;58.25;36.90;;;;;;;0.26;100.00;99630.25;4960527;28;20185;-88
2021/12/28 10:56:46;;;;;;;53.72;34.53;;;;;;;0.36;100.00;99618.69;4960619;28;20179;-89
2021/12/28 10:59:14;;;;;;;62.88;36.53;;;;;;;0.45;100.00;99629.97;4962437;28;20193;-89
2021/12/28 11:01:42;;;;;;;61.22;35.08;;;;;;;0.40;100.00;99622.16;4960856;28;20202;-87
2021/12/28 11:04:13;;;;;;;62.10;36.97;;;;;;;0.39;100.00;99618.66;4958940;28;20631;-88
2021/12/28 11:06:49;;;;;;;57.08;35.08;;;;;;;0.38;100.00;99614.25;4974853;28;20201;-88
2021/12/28 11:09:19;;;;;;;60.00;36.30;;;;;;;0.37;100.00;99604.63;4960707;28;20619;-87
2021/12/28 11:11:46;;;;;;;58.38;36.58;;;;;;;0.46;100.00;99614.16;4959269;28;20624;-89
2021/12/28 11:14:17;;;;;;;53.53;35.67;;;;;;;0.51;99.89;99599.13;4958886;28;20201;-88